createdAt,value
2023-03-01T00:01:22.177Z,14.68
2023-03-01T00:03:49.862Z,19.83
2023-03-01T00:06:17.878Z,16.40
2023-03-01T00:08:45.238Z,14.85
2023-03-01T00:11:25.701Z,23.15
2023-03-01T00:13:57.104Z,17.60
2023-03-01T00:16:29.254Z,26.10
2023-03-01T00:19:00.756Z,16.75
2023-03-01T00:21:28.848Z,18.00
2023-03-01T00:23:56.283Z,20.35
2023-03-01T00:26:24.635Z,17.55
2023-03-01T00:28:52.192Z,17.13
2023-03-01T00:31:24.794Z,13.13
2023-03-01T00:33:58.876Z,17.73
2023-03-01T00:36:29.625Z,23.02
2023-03-01T00:38:57.829Z,19.35
2023-03-01T00:41:29.484Z,23.10
2023-03-01T00:43:58.303Z,21.02
2023-03-01T00:46:30.433Z,14.25
2023-03-01T00:48:58.002Z,15.57
2023-03-01T00:51:28.440Z,14.85
2023-03-01T00:53:58.941Z,20.05
2023-03-01T00:56:26.103Z,12.82
2023-03-01T00:58:53.558Z,16.70
2023-03-01T01:01:23.683Z,14.43
2023-03-01T01:03:53.676Z,16.25
2023-03-01T01:06:29.625Z,16.80
2023-03-01T01:08:57.934Z,16.02
2023-03-01T01:11:27.678Z,14.48
2023-03-01T01:13:55.199Z,17.77
2023-03-01T01:16:24.417Z,17.10
2023-03-01T01:18:52.339Z,17.45
2023-03-01T01:21:21.834Z,18.13
2023-03-01T01:23:49.426Z,16.33
2023-03-01T01:26:25.853Z,19.98
2023-03-01T01:28:53.896Z,17.02
2023-03-01T01:31:24.424Z,19.13
2023-03-01T01:33:52.169Z,16.08
2023-03-01T01:36:19.563Z,16.05
2023-03-01T01:38:46.761Z,17.60
2023-03-01T01:41:14.531Z,15.73
2023-03-01T01:43:47.705Z,14.48
2023-03-01T01:46:20.397Z,20.95
2023-03-01T01:48:51.038Z,13.37
2023-03-01T01:51:26.608Z,16.45
2023-03-01T01:54:00.164Z,17.42
2023-03-01T01:56:29.041Z,15.02
2023-03-01T01:58:57.079Z,17.80
2023-03-01T02:01:24.506Z,16.70
2023-03-01T02:03:52.370Z,16.30
2023-03-01T02:06:40.488Z,19.45
2023-03-01T02:09:15.347Z,17.42
2023-03-01T02:11:44.175Z,18.55
2023-03-01T02:14:11.806Z,16.00
2023-03-01T02:16:39.026Z,19.90
2023-03-01T02:19:07.233Z,18.88
2023-03-01T02:22:01.822Z,22.55
2023-03-01T02:25:04.539Z,15.73
2023-03-01T02:27:41.636Z,18.85
2023-03-01T02:30:09.372Z,18.10
2023-03-01T02:32:36.528Z,21.35
2023-03-01T02:35:07.468Z,29.95
2023-03-01T02:37:36.953Z,18.33
2023-03-01T02:40:12.454Z,16.40
2023-03-01T02:42:49.650Z,21.77
2023-03-01T02:45:16.886Z,21.13
2023-03-01T02:47:43.903Z,29.02
2023-03-01T02:50:36.659Z,22.42
2023-03-01T02:53:11.912Z,22.40
2023-03-01T02:55:39.642Z,28.17
2023-03-01T02:58:06.804Z,21.52
2023-03-01T03:00:47.854Z,17.23
2023-03-01T03:03:17.697Z,18.58
2023-03-01T03:05:45.363Z,23.55
2023-03-01T03:08:12.725Z,20.17
2023-03-01T03:10:41.656Z,18.40
2023-03-01T03:13:12.014Z,25.38
2023-03-01T03:15:40.482Z,16.52
2023-03-01T03:18:10.846Z,19.30
2023-03-01T03:20:40.547Z,16.83
2023-03-01T03:23:07.707Z,19.38
2023-03-01T03:25:38.524Z,31.23
2023-03-01T03:28:10.454Z,26.45
2023-03-01T03:30:42.668Z,21.77
2023-03-01T03:33:13.430Z,19.15
2023-03-01T03:35:44.175Z,20.00
2023-03-01T03:38:18.826Z,18.23
2023-03-01T03:40:48.337Z,20.23
2023-03-01T03:43:18.487Z,20.85
2023-03-01T03:45:47.240Z,16.13
2023-03-01T03:48:15.121Z,19.77
2023-03-01T03:50:42.945Z,20.02
2023-03-01T03:53:12.637Z,18.48
2023-03-01T03:55:40.492Z,17.25
2023-03-01T03:58:10.854Z,18.00
2023-03-01T04:00:43.692Z,27.25
2023-03-01T04:03:12.566Z,25.90
2023-03-01T04:05:40.833Z,19.23
2023-03-01T04:08:09.186Z,21.38
2023-03-01T04:10:38.716Z,21.75
2023-03-01T04:13:07.797Z,20.10
2023-03-01T04:15:35.594Z,17.63
2023-03-01T04:18:02.866Z,29.38
2023-03-01T04:20:34.567Z,19.98
2023-03-01T04:23:16.623Z,24.05
2023-03-01T04:25:55.792Z,19.70
2023-03-01T04:28:28.634Z,23.85
2023-03-01T04:30:58.910Z,20.00
2023-03-01T04:33:27.327Z,18.30
2023-03-01T04:35:54.566Z,20.98
2023-03-01T04:38:22.296Z,17.98
2023-03-01T04:40:49.504Z,17.58
2023-03-01T04:43:16.622Z,22.23
2023-03-01T04:45:43.921Z,19.00
2023-03-01T04:48:11.039Z,21.98
2023-03-01T04:50:38.075Z,20.08
2023-03-01T04:53:05.153Z,20.88
2023-03-01T04:55:32.617Z,21.20
2023-03-01T04:57:59.822Z,20.67
2023-03-01T05:00:27.574Z,21.30
2023-03-01T05:02:57.986Z,25.80
2023-03-01T05:05:29.728Z,34.08
2023-03-01T05:08:00.254Z,22.33
2023-03-01T05:10:31.252Z,25.55
2023-03-01T05:12:59.574Z,23.20
2023-03-01T05:15:29.093Z,18.90
2023-03-01T05:18:00.047Z,20.23
2023-03-01T05:20:29.697Z,27.77
2023-03-01T05:22:59.671Z,21.88
2023-03-01T05:25:28.233Z,19.83
2023-03-01T05:27:55.331Z,20.92
2023-03-01T05:30:23.003Z,20.38
2023-03-01T05:32:57.342Z,29.90
2023-03-01T05:35:24.524Z,23.73
2023-03-01T05:37:52.236Z,21.55
2023-03-01T05:40:24.147Z,25.60
2023-03-01T05:42:58.002Z,26.27
2023-03-01T05:45:27.492Z,24.23
2023-03-01T05:47:56.000Z,25.25
2023-03-01T05:50:32.795Z,24.08
2023-03-01T05:53:03.664Z,24.70
2023-03-01T05:55:32.014Z,20.85
2023-03-01T05:58:01.154Z,24.38
2023-03-01T06:00:30.202Z,19.95
2023-03-01T06:02:59.203Z,21.08
2023-03-01T06:05:27.520Z,22.50
2023-03-01T06:07:55.143Z,19.05
2023-03-01T06:10:25.798Z,22.95
2023-03-01T06:12:56.547Z,25.20
2023-03-01T06:15:25.397Z,20.17
2023-03-01T06:17:57.098Z,25.90
2023-03-01T06:20:29.148Z,26.83
2023-03-01T06:22:57.538Z,25.27
2023-03-01T06:25:29.051Z,22.33
2023-03-01T06:27:56.230Z,27.63
2023-03-01T06:30:26.149Z,27.27
2023-03-01T06:32:53.694Z,24.02
2023-03-01T06:35:21.024Z,27.90
2023-03-01T06:37:48.939Z,25.92
2023-03-01T06:40:16.357Z,24.13
2023-03-01T06:42:45.131Z,32.88
2023-03-01T06:45:12.670Z,35.88
2023-03-01T06:47:40.029Z,31.38
2023-03-01T06:50:07.378Z,29.33
2023-03-01T06:52:34.487Z,32.17
2023-03-01T06:55:02.063Z,32.90
2023-03-01T06:57:29.556Z,30.75
2023-03-01T06:59:57.178Z,28.55
2023-03-01T07:02:24.545Z,27.92
2023-03-01T07:04:52.934Z,24.25
2023-03-01T07:07:20.124Z,31.65
2023-03-01T07:09:47.747Z,29.75
2023-03-01T07:12:14.887Z,27.67
2023-03-01T07:14:42.170Z,29.65
2023-03-01T07:17:09.238Z,25.52
2023-03-01T07:19:36.484Z,33.97
2023-03-01T07:22:05.220Z,29.02
2023-03-01T07:24:32.730Z,36.28
2023-03-01T07:26:59.775Z,25.10
2023-03-01T07:29:27.379Z,28.75
2023-03-01T07:31:54.551Z,26.15
2023-03-01T07:34:21.989Z,24.85
2023-03-01T07:36:49.148Z,25.10
2023-03-01T07:39:18.499Z,22.33
2023-03-01T07:41:45.750Z,24.73
2023-03-01T07:44:12.984Z,22.25
2023-03-01T07:46:40.108Z,25.33
2023-03-01T07:49:07.290Z,26.52
2023-03-01T07:51:34.310Z,34.10
2023-03-01T07:54:01.497Z,31.15
2023-03-01T07:56:29.178Z,22.73
2023-03-01T07:58:56.905Z,27.70
2023-03-01T08:01:24.867Z,26.58
2023-03-01T08:03:52.022Z,19.42
2023-03-01T08:06:19.946Z,25.73
2023-03-01T08:08:47.096Z,21.67
2023-03-01T08:11:15.774Z,29.52
2023-03-01T08:13:44.171Z,23.52
2023-03-01T08:16:13.925Z,25.38
2023-03-01T08:18:41.676Z,23.88
2023-03-01T08:21:12.076Z,25.98
2023-03-01T08:23:40.344Z,26.67
2023-03-01T08:26:08.821Z,36.30
2023-03-01T08:28:36.395Z,14.90
2023-03-01T08:31:03.867Z,18.52
2023-03-01T08:33:31.055Z,16.05
2023-03-01T08:36:07.828Z,21.55
2023-03-01T08:38:36.225Z,13.35
2023-03-01T08:41:04.341Z,14.18
2023-03-01T08:43:31.947Z,16.88
2023-03-01T08:45:59.184Z,16.40
2023-03-01T08:48:28.448Z,13.70
2023-03-01T08:50:55.970Z,13.85
2023-03-01T08:53:23.215Z,13.38
2023-03-01T08:55:50.813Z,11.80
2023-03-01T08:58:18.022Z,14.88
2023-03-01T09:00:45.536Z,10.90
2023-03-01T09:03:12.584Z,15.02
2023-03-01T09:05:39.713Z,11.18
2023-03-01T09:08:06.859Z,11.20
2023-03-01T09:10:33.993Z,13.77
2023-03-01T09:13:00.994Z,9.85
2023-03-01T09:15:28.837Z,7.65
2023-03-01T09:17:55.897Z,10.43
2023-03-01T09:20:23.350Z,8.73
2023-03-01T09:22:50.451Z,9.35
2023-03-01T09:25:17.704Z,7.45
2023-03-01T09:27:44.770Z,7.72
2023-03-01T09:30:12.342Z,7.63
2023-03-01T09:32:43.665Z,6.03
2023-03-01T09:35:10.848Z,7.82
2023-03-01T09:37:38.747Z,6.47
2023-03-01T09:40:07.599Z,7.78
2023-03-01T09:42:37.220Z,7.40
2023-03-01T09:45:34.420Z,5.35
2023-03-01T09:48:03.001Z,7.03
2023-03-01T09:50:36.435Z,5.65
2023-03-01T09:53:10.199Z,7.80
2023-03-01T09:58:40.897Z,3.97
2023-03-01T10:01:32.686Z,2.40
2023-03-01T10:04:28.808Z,2.90
2023-03-01T10:07:01.603Z,4.45
2023-03-01T10:09:33.295Z,3.97
2023-03-01T10:12:03.126Z,6.90
2023-03-01T10:14:32.874Z,3.65
2023-03-01T10:17:13.197Z,5.93
2023-03-01T10:19:43.617Z,4.65
2023-03-01T10:22:23.646Z,5.70
2023-03-01T10:24:54.230Z,4.57
2023-03-01T10:27:28.813Z,4.53
2023-03-01T10:30:23.611Z,3.95
2023-03-01T10:32:54.746Z,4.63
2023-03-01T10:35:26.084Z,6.45
2023-03-01T10:38:06.553Z,3.25
2023-03-01T10:40:35.321Z,8.63
2023-03-01T10:43:07.225Z,5.95
2023-03-01T10:45:37.668Z,4.68
2023-03-01T10:48:04.701Z,3.08
2023-03-01T10:50:31.881Z,3.88
2023-03-01T10:53:05.172Z,7.82
2023-03-01T10:55:40.689Z,3.72
2023-03-01T10:58:09.255Z,3.60
2023-03-01T11:01:01.190Z,3.42
2023-03-01T11:03:37.744Z,3.50
2023-03-01T11:06:23.140Z,3.72
2023-03-01T11:08:51.984Z,4.53
2023-03-01T11:11:32.927Z,3.05
2023-03-01T11:14:25.912Z,4.00
2023-03-01T11:17:03.613Z,4.40
2023-03-01T11:19:30.959Z,2.03
2023-03-01T11:22:02.987Z,3.05
2023-03-01T11:24:45.996Z,5.90
2023-03-01T11:27:41.829Z,4.45
2023-03-01T11:30:17.651Z,4.82
2023-03-01T11:32:52.344Z,5.82
2023-03-01T11:35:24.442Z,3.40
2023-03-01T11:38:12.232Z,4.03
2023-03-01T11:40:54.312Z,3.50
2023-03-01T11:43:36.712Z,3.78
2023-03-01T11:46:17.627Z,4.15
2023-03-01T11:49:02.764Z,4.35
2023-03-01T11:51:54.569Z,5.60
2023-03-01T11:54:49.308Z,3.45
2023-03-01T11:57:43.979Z,3.17
2023-03-01T12:00:45.536Z,3.72
2023-03-01T12:03:22.404Z,2.75
2023-03-01T12:06:06.395Z,4.22
2023-03-01T12:11:37.864Z,4.45
2023-03-01T12:14:32.680Z,4.40
2023-03-01T12:17:18.595Z,6.07
2023-03-01T12:19:54.468Z,5.63
2023-03-01T12:22:35.519Z,3.30
2023-03-01T12:25:21.890Z,3.80
2023-03-01T12:27:56.083Z,4.53
2023-03-01T12:30:23.098Z,3.35
2023-03-01T12:33:06.549Z,4.25
2023-03-01T12:35:41.420Z,6.32
2023-03-01T12:38:35.669Z,5.43
2023-03-01T12:41:12.822Z,3.90
2023-03-01T12:44:08.834Z,5.40
2023-03-01T12:46:42.869Z,3.42
2023-03-01T12:49:17.366Z,6.28
2023-03-01T12:51:59.878Z,4.43
2023-03-01T12:54:31.544Z,4.13
2023-03-01T12:57:09.549Z,4.38
2023-03-01T13:00:16.037Z,5.22
2023-03-01T13:03:06.204Z,6.57
2023-03-01T13:06:17.535Z,4.72
2023-03-01T13:09:10.360Z,7.57
2023-03-01T13:11:37.549Z,5.15
2023-03-01T13:14:24.492Z,3.67
2023-03-01T13:16:55.781Z,4.70
2023-03-01T13:19:30.693Z,5.20
2023-03-01T13:22:01.046Z,4.95
2023-03-01T13:24:39.695Z,4.80
2023-03-01T13:27:06.715Z,5.43
2023-03-01T13:30:06.587Z,4.63
2023-03-01T13:32:44.524Z,3.13
2023-03-01T13:35:21.051Z,4.03
2023-03-01T13:37:48.222Z,4.80
2023-03-01T13:40:19.599Z,3.60
2023-03-01T13:43:05.688Z,4.65
2023-03-01T13:45:41.592Z,4.35
2023-03-01T13:48:11.372Z,4.57
2023-03-01T13:50:49.160Z,5.43
2023-03-01T13:53:20.469Z,5.32
2023-03-01T13:55:52.064Z,8.18
2023-03-01T13:58:26.121Z,4.30
2023-03-01T14:01:00.265Z,4.20
2023-03-01T14:03:28.766Z,4.45
2023-03-01T14:06:20.364Z,4.20
2023-03-01T14:08:51.698Z,4.63
2023-03-01T14:11:36.043Z,8.02
2023-03-01T14:16:32.824Z,5.05
2023-03-01T14:19:33.164Z,4.55
2023-03-01T14:22:23.336Z,6.43
2023-03-01T14:24:53.556Z,3.13
2023-03-01T14:27:21.661Z,4.65
2023-03-01T14:30:02.035Z,10.02
2023-03-01T14:32:31.816Z,4.68
2023-03-01T14:35:00.923Z,4.18
2023-03-01T14:37:33.036Z,4.07
2023-03-01T14:40:03.288Z,4.05
2023-03-01T14:42:35.663Z,5.50
2023-03-01T14:45:05.475Z,3.67
2023-03-01T14:47:35.669Z,5.03
2023-03-01T14:50:08.825Z,3.00
2023-03-01T14:52:39.552Z,6.22
2023-03-01T14:55:17.545Z,4.18
2023-03-01T14:57:47.680Z,4.05
2023-03-01T15:00:20.917Z,4.35
2023-03-01T15:02:53.653Z,4.45
2023-03-01T15:05:34.457Z,6.20
2023-03-01T15:08:04.689Z,4.03
2023-03-01T15:10:36.852Z,13.63
2023-03-01T15:13:34.439Z,4.60
2023-03-01T15:16:12.974Z,5.40
2023-03-01T15:18:49.272Z,7.72
2023-03-01T15:21:33.392Z,5.05
2023-03-01T15:24:20.541Z,6.13
2023-03-01T15:27:02.892Z,4.40
2023-03-01T15:29:34.378Z,4.90
2023-03-01T15:32:07.653Z,5.13
2023-03-01T15:34:40.119Z,4.47
2023-03-01T15:37:45.736Z,4.65
2023-03-01T15:40:32.734Z,3.72
2023-03-01T15:43:07.543Z,6.40
2023-03-01T15:45:35.113Z,5.18
2023-03-01T15:48:05.150Z,5.50
2023-03-01T15:50:35.060Z,5.53
2023-03-01T15:53:07.536Z,8.00
2023-03-01T15:55:34.670Z,6.55
2023-03-01T15:58:15.874Z,4.78
2023-03-01T16:00:58.171Z,8.48
2023-03-01T16:03:27.816Z,6.97
2023-03-01T16:05:55.343Z,4.47
2023-03-01T16:08:22.445Z,6.13
2023-03-01T16:10:52.100Z,7.97
2023-03-01T16:13:19.392Z,6.25
2023-03-01T16:15:46.413Z,6.13
2023-03-01T16:18:13.510Z,4.75
2023-03-01T16:20:41.161Z,12.30
2023-03-01T16:23:11.183Z,7.00
2023-03-01T16:25:38.745Z,5.45
2023-03-01T16:28:10.058Z,4.88
2023-03-01T16:30:40.840Z,8.48
2023-03-01T16:33:26.892Z,5.38
2023-03-01T16:35:57.576Z,4.85
2023-03-01T16:38:24.736Z,4.00
2023-03-01T16:40:53.294Z,6.43
2023-03-01T16:43:20.737Z,4.13
2023-03-01T16:45:47.916Z,6.90
2023-03-01T16:48:15.259Z,4.88
2023-03-01T16:50:42.391Z,4.45
2023-03-01T16:53:09.572Z,4.68
2023-03-01T16:55:37.004Z,4.72
2023-03-01T16:58:05.110Z,8.02
2023-03-01T17:00:32.662Z,6.35
2023-03-01T17:02:59.883Z,4.70
2023-03-01T17:05:27.441Z,4.45
2023-03-01T17:07:57.633Z,4.45
2023-03-01T17:10:24.715Z,6.25
2023-03-01T17:12:52.166Z,6.60
2023-03-01T17:15:19.840Z,4.45
2023-03-01T17:17:52.491Z,6.22
2023-03-01T17:20:19.914Z,4.82
2023-03-01T17:22:47.288Z,6.38
2023-03-01T17:25:14.446Z,10.88
2023-03-01T17:27:41.666Z,4.47
2023-03-01T17:30:10.860Z,5.68
2023-03-01T17:32:38.223Z,5.15
2023-03-01T17:35:06.308Z,5.65
2023-03-01T17:37:33.568Z,8.52
2023-03-01T17:40:00.632Z,6.60
2023-03-01T17:42:30.581Z,5.95
2023-03-01T17:44:58.464Z,7.80
2023-03-01T17:47:25.570Z,5.30
2023-03-01T17:49:53.160Z,6.07
2023-03-01T17:52:23.632Z,10.07
2023-03-01T17:54:50.833Z,6.57
2023-03-01T17:57:17.981Z,7.13
2023-03-01T17:59:45.077Z,6.18
2023-03-01T18:02:12.921Z,8.00
2023-03-01T18:04:40.131Z,8.77
2023-03-01T18:07:07.099Z,5.40
2023-03-01T18:09:34.139Z,6.65
2023-03-01T18:12:01.307Z,8.00
2023-03-01T18:14:34.073Z,7.20
2023-03-01T18:17:04.288Z,9.15
2023-03-01T18:19:31.616Z,6.47
2023-03-01T18:21:58.776Z,7.43
2023-03-01T18:24:26.009Z,11.77
2023-03-01T18:26:53.261Z,6.95
2023-03-01T18:29:20.339Z,5.93
2023-03-01T18:31:47.707Z,7.22
2023-03-01T18:34:15.012Z,7.35
2023-03-01T18:36:47.973Z,5.53
2023-03-01T18:39:24.020Z,11.88
2023-03-01T18:41:51.358Z,8.05
2023-03-01T18:44:18.680Z,7.00
2023-03-01T18:46:48.972Z,22.58
2023-03-01T18:49:16.170Z,18.08
2023-03-01T18:51:43.626Z,16.30
2023-03-01T18:54:12.946Z,10.95
2023-03-01T18:56:40.226Z,10.43
2023-03-01T18:59:07.800Z,8.60
2023-03-01T19:01:37.322Z,8.48
2023-03-01T19:04:05.166Z,5.97
2023-03-01T19:06:34.541Z,6.15
2023-03-01T19:09:01.788Z,8.40
2023-03-01T19:11:30.937Z,8.70
2023-03-01T19:14:03.690Z,5.40
2023-03-01T19:16:33.141Z,7.05
2023-03-01T19:19:02.422Z,7.22
2023-03-01T19:21:32.160Z,7.07
2023-03-01T19:23:59.865Z,8.32
2023-03-01T19:26:31.911Z,8.35
2023-03-01T19:28:59.417Z,6.53
2023-03-01T19:31:33.078Z,9.52
2023-03-01T19:36:41.697Z,10.73
2023-03-01T19:39:10.285Z,15.65
2023-03-01T19:41:37.319Z,23.50
2023-03-01T19:44:05.886Z,13.73
2023-03-01T19:46:34.167Z,20.77
2023-03-01T19:49:03.265Z,14.23
2023-03-01T19:51:33.361Z,13.15
2023-03-01T19:54:00.496Z,12.85
2023-03-01T19:56:31.879Z,11.68
2023-03-01T19:59:00.562Z,12.43
2023-03-01T20:01:32.845Z,16.38
2023-03-01T20:04:04.072Z,20.75
2023-03-01T20:06:32.045Z,10.52
2023-03-01T20:09:02.355Z,10.10
2023-03-01T20:11:34.078Z,11.98
2023-03-01T20:14:01.158Z,9.85
2023-03-01T20:16:28.893Z,11.05
2023-03-01T20:18:57.798Z,12.27
2023-03-01T20:21:25.150Z,9.90
2023-03-01T20:23:53.201Z,14.30
2023-03-01T20:26:22.029Z,11.02
2023-03-01T20:28:51.994Z,13.35
2023-03-01T20:31:20.856Z,11.02
2023-03-01T20:33:48.122Z,11.32
2023-03-01T20:36:15.620Z,14.18
2023-03-01T20:38:42.839Z,15.65
2023-03-01T20:41:12.409Z,13.18
2023-03-01T20:43:41.362Z,10.48
2023-03-01T20:46:11.846Z,12.75
2023-03-01T20:48:43.217Z,13.13
2023-03-01T20:51:12.132Z,10.82
2023-03-01T20:53:39.803Z,11.05
2023-03-01T20:56:09.443Z,10.75
2023-03-01T20:58:36.776Z,11.70
2023-03-01T21:01:05.931Z,10.32
2023-03-01T21:03:33.907Z,12.02
2023-03-01T21:06:03.178Z,14.13
2023-03-01T21:08:30.856Z,11.63
2023-03-01T21:11:01.058Z,11.80
2023-03-01T21:13:29.678Z,13.20
2023-03-01T21:16:00.803Z,12.75
2023-03-01T21:18:32.673Z,14.40
2023-03-01T21:21:01.795Z,12.82
2023-03-01T21:23:30.672Z,10.43
2023-03-01T21:26:01.660Z,10.88
2023-03-01T21:28:32.544Z,12.93
2023-03-01T21:31:15.065Z,14.85
2023-03-01T21:33:48.274Z,16.95
2023-03-01T21:36:16.836Z,18.90
2023-03-01T21:38:46.243Z,16.67
2023-03-01T21:41:14.550Z,9.65
2023-03-01T21:43:43.284Z,11.90
2023-03-01T21:46:14.127Z,13.10
2023-03-01T21:48:44.261Z,16.27
2023-03-01T21:51:14.912Z,13.43
2023-03-01T21:53:43.202Z,13.93
2023-03-01T21:56:15.417Z,13.27
2023-03-01T21:58:42.512Z,18.73
2023-03-01T22:01:13.555Z,17.00
2023-03-01T22:03:47.001Z,15.93
2023-03-01T22:06:34.120Z,17.30
2023-03-01T22:09:05.909Z,16.08
2023-03-01T22:11:35.480Z,14.25
2023-03-01T22:14:04.620Z,16.27
2023-03-01T22:16:34.253Z,15.73
2023-03-01T22:19:03.255Z,26.65
2023-03-01T22:21:30.483Z,16.67
2023-03-01T22:23:58.621Z,15.75
2023-03-01T22:26:31.976Z,14.95
2023-03-01T22:29:02.225Z,25.40
2023-03-01T22:31:29.863Z,14.65
2023-03-01T22:33:58.673Z,16.20
2023-03-01T22:36:27.490Z,18.27
2023-03-01T22:39:00.087Z,15.45
2023-03-01T22:41:32.882Z,18.03
2023-03-01T22:43:59.974Z,21.25
2023-03-01T22:46:29.536Z,19.55
2023-03-01T22:48:57.544Z,19.23
2023-03-01T22:51:30.412Z,20.98
2023-03-01T22:54:00.537Z,23.80
2023-03-01T22:56:30.691Z,23.88
2023-03-01T22:59:03.789Z,20.60
2023-03-01T23:01:31.360Z,20.40
2023-03-01T23:03:58.991Z,21.83
2023-03-01T23:06:26.092Z,26.13
2023-03-01T23:08:56.277Z,26.63
2023-03-01T23:11:25.748Z,27.08
2023-03-01T23:13:54.185Z,26.88
2023-03-01T23:16:27.768Z,27.92
2023-03-01T23:18:56.046Z,24.05
2023-03-01T23:21:23.588Z,26.98
2023-03-01T23:23:51.055Z,27.60
2023-03-01T23:26:18.978Z,33.53
2023-03-01T23:28:47.268Z,25.92
2023-03-01T23:31:15.349Z,31.63
2023-03-01T23:33:44.980Z,28.60
2023-03-01T23:36:22.390Z,27.92
2023-03-01T23:38:52.441Z,32.08
2023-03-01T23:41:23.257Z,28.73
2023-03-01T23:43:52.717Z,27.23
2023-03-01T23:46:21.750Z,38.78
2023-03-01T23:48:49.292Z,31.48
2023-03-01T23:51:17.892Z,36.10
2023-03-01T23:53:54.511Z,38.55
2023-03-01T23:56:28.940Z,35.67
2023-03-01T23:58:58.826Z,35.60
